Time;durP1;ratioP1;P1;durP2;ratioP2;P2;SDS_P1;SDS_P2;PMS_P1;PMS_P2;Temp;Humidity;BMP_temperature;BMP_pressure;BME280_temperature;BME280_humidity;BME280_pressure;Samples;Min_cycle;Max_cycle;Signal;HPM_P1;HPM_P2
2022/06/18 00:00:32;;;;;;;1.70;1.60;;;22.80;59.60;;;;;;5043177;28;43415;-62
2022/06/18 00:03:00;;;;;;;1.60;1.50;;;22.90;59.80;;;;;;5044340;28;43433;-62
2022/06/18 00:05:28;;;;;;;1.60;1.50;;;22.90;59.80;;;;;;5044106;28;43802;-62
2022/06/18 00:07:57;;;;;;;1.70;1.60;;;22.90;59.70;;;;;;5043840;28;43543;-62
2022/06/18 00:10:29;;;;;;;1.85;1.75;;;22.90;59.70;;;;;;5043281;28;43617;-62
2022/06/18 00:16:17;;;;;;;1.80;1.70;;;22.90;59.70;;;;;;5006969;28;44103;-62
2022/06/18 00:18:45;;;;;;;1.67;1.58;;;22.80;59.70;;;;;;5037011;28;43419;-63
2022/06/18 00:21:17;;;;;;;1.70;1.60;;;22.80;59.70;;;;;;5043710;28;43435;-62
2022/06/18 00:23:45;;;;;;;1.75;1.65;;;22.80;59.70;;;;;;5043817;28;43471;-62
2022/06/18 00:26:12;;;;;;;1.83;1.60;;;22.80;59.70;;;;;;5041752;28;44050;-62
2022/06/18 00:28:40;;;;;;;1.70;1.60;;;22.80;59.70;;;;;;5044622;28;43934;-62
2022/06/18 00:31:07;;;;;;;1.80;1.70;;;22.80;59.70;;;;;;5043707;28;43419;-62
2022/06/18 00:33:39;;;;;;;1.75;1.65;;;22.80;59.70;;;;;;5044086;28;43452;-62
2022/06/18 00:36:13;;;;;;;1.55;1.45;;;22.80;59.70;;;;;;5043560;28;44845;-61
2022/06/18 00:38:44;;;;;;;1.63;1.55;;;22.80;59.70;;;;;;5041526;28;43512;-62
2022/06/18 00:41:15;;;;;;;;;;;22.80;59.80;;;;;;5043935;28;43435;-62
2022/06/18 00:43:46;;;;;;;;;;;22.80;59.70;;;;;;5043149;28;43467;-63
2022/06/18 00:46:25;;;;;;;1.83;1.73;;;22.80;59.80;;;;;;5077491;28;45566;-62
2022/06/18 00:49:32;;;;;;;1.60;1.50;;;22.80;59.80;;;;;;5035676;28;44136;-62
2022/06/18 00:52:26;;;;;;;1.88;1.77;;;22.70;59.80;;;;;;5006324;28;43570;-62
2022/06/18 00:55:15;;;;;;;1.75;1.65;;;22.80;59.80;;;;;;5043061;28;43518;-63
2022/06/18 00:57:51;;;;;;;1.58;1.50;;;22.70;59.80;;;;;;5042598;28;44851;-63
2022/06/18 01:00:28;;;;;;;1.80;1.70;;;22.70;59.80;;;;;;5041302;28;43928;-62
2022/06/18 01:02:56;;;;;;;1.77;1.67;;;22.70;59.80;;;;;;5039466;28;43468;-62
2022/06/18 01:05:38;;;;;;;1.80;1.70;;;22.70;59.80;;;;;;5041774;28;43498;-62
2022/06/18 01:08:13;;;;;;;1.85;1.75;;;22.70;59.80;;;;;;5042702;28;43596;-62
2022/06/18 01:10:48;;;;;;;1.70;1.60;;;22.70;59.80;;;;;;5041699;28;43452;-62
2022/06/18 01:13:20;;;;;;;1.40;1.40;;;22.70;59.80;;;;;;5040925;28;43467;-62
2022/06/18 01:15:49;;;;;;;1.80;1.70;;;22.70;59.80;;;;;;5040939;28;43503;-62
2022/06/18 01:18:17;;;;;;;1.80;1.70;;;22.70;59.80;;;;;;5042817;28;44016;-62
2022/06/18 01:20:59;;;;;;;1.77;1.67;;;22.70;59.80;;;;;;5042895;28;43443;-62
2022/06/18 01:23:57;;;;;;;1.90;1.80;;;22.70;59.80;;;;;;5034210;28;43622;-62
2022/06/18 01:26:27;;;;;;;1.65;1.55;;;22.70;59.80;;;;;;5009081;28;43620;-62
2022/06/18 01:28:54;;;;;;;1.73;1.63;;;22.70;59.80;;;;;;5041152;28;44087;-62
2022/06/18 01:31:23;;;;;;;2.20;1.90;;;22.70;59.80;;;;;;5041681;28;43886;-62
2022/06/18 01:33:51;;;;;;;1.80;1.70;;;22.70;59.80;;;;;;5041852;28;43485;-62
2022/06/18 01:36:21;;;;;;;1.73;1.60;;;22.70;59.80;;;;;;5041956;28;43584;-62
2022/06/18 01:38:49;;;;;;;1.80;1.70;;;22.70;59.80;;;;;;5041556;28;44320;-62
2022/06/18 01:41:50;;;;;;;1.80;1.70;;;22.70;59.80;;;;;;5041578;28;43551;-62
2022/06/18 01:44:40;;;;;;;1.73;1.63;;;22.70;59.70;;;;;;5039546;28;43454;-62
2022/06/18 01:47:48;;;;;;;1.60;1.50;;;22.70;59.80;;;;;;5042750;28;43559;-62
2022/06/18 01:50:40;;;;;;;1.70;1.60;;;22.70;59.70;;;;;;5037425;28;44936;-62
2022/06/18 01:53:14;;;;;;;2.00;1.90;;;22.70;59.80;;;;;;5032857;28;43540;-62
2022/06/18 01:55:48;;;;;;;2.03;1.92;;;22.70;59.80;;;;;;5042707;28;43546;-62
2022/06/18 01:58:22;;;;;;;2.20;1.77;;;22.70;59.80;;;;;;5042202;28;43574;-62
2022/06/18 02:00:55;;;;;;;1.80;1.70;;;22.70;59.80;;;;;;5042203;28;44041;-62
2022/06/18 02:03:23;;;;;;;1.60;1.50;;;22.70;59.80;;;;;;5022569;28;44204;-62
2022/06/18 02:05:51;;;;;;;1.90;1.80;;;22.70;59.80;;;;;;5042493;28;43495;-62
2022/06/18 02:08:19;;;;;;;1.70;1.50;;;22.70;59.80;;;;;;5041218;28;43640;-62
2022/06/18 02:10:58;;;;;;;1.73;1.65;;;22.70;59.80;;;;;;5041979;28;44043;-62
2022/06/18 02:13:33;;;;;;;1.80;1.70;;;22.70;59.80;;;;;;5033932;28;44096;-62
2022/06/18 02:16:05;;;;;;;1.92;1.83;;;22.70;59.70;;;;;;5041122;28;43431;-61
2022/06/18 02:18:34;;;;;;;1.88;1.77;;;22.70;59.80;;;;;;5032770;28;43519;-62
2022/06/18 02:21:07;;;;;;;1.70;1.60;;;22.70;59.80;;;;;;5043211;28;44941;-62
2022/06/18 02:23:35;;;;;;;2.20;2.10;;;22.70;59.80;;;;;;5042328;28;43470;-62
2022/06/18 02:26:06;;;;;;;1.77;1.67;;;22.70;59.80;;;;;;5043485;28;43454;-62
2022/06/18 02:28:41;;;;;;;2.20;1.90;;;22.70;59.80;;;;;;5044723;28;43440;-62
2022/06/18 02:31:16;;;;;;;2.10;2.00;;;22.70;59.80;;;;;;5036796;28;43799;-62
2022/06/18 02:33:56;;;;;;;2.40;2.03;;;22.70;59.80;;;;;;5044544;28;43434;-62
2022/06/18 02:36:34;;;;;;;2.00;1.90;;;22.70;59.80;;;;;;5036474;28;43438;-62
2022/06/18 02:39:25;;;;;;;1.90;1.80;;;22.70;59.80;;;;;;5045469;28;43518;-62
2022/06/18 02:42:04;;;;;;;1.83;1.73;;;22.70;59.80;;;;;;5043793;28;44035;-62
2022/06/18 02:44:32;;;;;;;1.80;1.70;;;22.60;59.80;;;;;;5044130;28;43696;-62
2022/06/18 02:47:05;;;;;;;1.80;1.70;;;22.60;59.80;;;;;;5045537;28;43473;-63
2022/06/18 02:49:44;;;;;;;2.33;1.90;;;22.60;59.70;;;;;;5042900;28;43591;-62
2022/06/18 02:52:13;;;;;;;1.92;1.80;;;22.70;59.80;;;;;;5032619;28;44667;-63
2022/06/18 02:54:41;;;;;;;1.80;1.70;;;22.60;59.80;;;;;;5044146;28;43504;-62
2022/06/18 02:57:22;;;;;;;2.00;1.90;;;22.60;59.80;;;;;;5045084;28;43805;-63
2022/06/18 02:59:50;;;;;;;2.05;1.85;;;22.60;59.70;;;;;;5041567;28;43546;-62
2022/06/18 03:02:17;;;;;;;1.90;1.80;;;22.70;59.90;;;;;;5043784;28;44077;-62
2022/06/18 03:04:46;;;;;;;2.00;1.90;;;22.60;59.80;;;;;;5043451;28;43954;-62
2022/06/18 03:07:14;;;;;;;2.03;1.70;;;22.60;59.80;;;;;;5044071;28;43518;-62
2022/06/18 03:12:30;;;;;;;1.90;1.80;;;22.60;59.80;;;;;;5043521;28;44158;-62
2022/06/18 03:14:57;;;;;;;2.30;2.10;;;22.60;59.90;;;;;;5042596;28;44005;-62
2022/06/18 03:17:25;;;;;;;2.05;1.80;;;22.60;59.80;;;;;;5041298;28;43440;-63
2022/06/18 03:20:01;;;;;;;2.10;2.00;;;22.60;59.90;;;;;;5044411;28;43489;-63
2022/06/18 03:22:29;;;;;;;2.10;2.00;;;22.60;59.80;;;;;;5043297;28;45035;-63
2022/06/18 03:24:56;;;;;;;2.00;1.90;;;22.60;59.90;;;;;;5043365;28;43757;-63
2022/06/18 03:27:24;;;;;;;2.08;1.90;;;22.60;59.90;;;;;;5043709;28;43593;-62
2022/06/18 03:29:56;;;;;;;2.60;2.40;;;22.60;59.90;;;;;;5044312;28;43508;-62
2022/06/18 03:32:24;;;;;;;2.10;2.00;;;22.60;59.90;;;;;;5075494;27;44249;-62
2022/06/18 03:34:52;;;;;;;2.45;2.22;;;22.60;59.90;;;;;;5042560;28;44073;-62
2022/06/18 03:37:20;;;;;;;2.10;2.00;;;22.60;60.00;;;;;;5043457;28;43443;-63
2022/06/18 03:39:48;;;;;;;2.20;2.00;;;22.50;59.80;;;;;;5044393;28;43534;-62
2022/06/18 03:42:16;;;;;;;2.25;1.98;;;22.60;59.90;;;;;;5043072;28;45002;-60
2022/06/18 03:44:43;;;;;;;2.35;2.15;;;22.60;59.90;;;;;;5043089;28;43720;-61
2022/06/18 03:47:11;;;;;;;2.08;1.98;;;22.50;59.90;;;;;;5045387;28;43423;-61
2022/06/18 03:49:40;;;;;;;2.22;2.03;;;22.50;59.90;;;;;;5044090;28;43582;-61
2022/06/18 03:52:10;;;;;;;2.13;2.03;;;22.50;59.90;;;;;;5044130;28;45033;-61
2022/06/18 03:54:38;;;;;;;2.33;2.13;;;22.50;59.90;;;;;;5031353;28;43487;-61
2022/06/18 03:57:12;;;;;;;2.30;2.10;;;22.50;59.90;;;;;;5043365;28;43403;-62
2022/06/18 03:59:40;;;;;;;2.50;2.30;;;22.50;59.90;;;;;;5076159;28;43499;-61
2022/06/18 04:02:09;;;;;;;2.13;2.00;;;22.50;59.90;;;;;;5043319;28;44097;-61
2022/06/18 04:04:41;;;;;;;2.38;2.17;;;22.50;59.90;;;;;;5076021;28;43573;-62
2022/06/18 04:07:18;;;;;;;2.25;2.05;;;22.50;59.90;;;;;;5043325;28;43508;-62
2022/06/18 04:10:07;;;;;;;2.20;2.00;;;22.50;59.90;;;;;;5040544;28;43620;-61
2022/06/18 04:12:36;;;;;;;2.33;1.95;;;22.50;59.90;;;;;;5055655;28;43827;-62
2022/06/18 04:15:19;;;;;;;2.33;2.13;;;22.50;59.90;;;;;;5043599;28;43465;-62
2022/06/18 04:17:56;;;;;;;3.38;2.20;;;22.50;59.90;;;;;;5041961;28;43407;-62
2022/06/18 04:20:28;;;;;;;2.20;2.10;;;22.50;59.90;;;;;;5043915;28;43543;-62
2022/06/18 04:22:57;;;;;;;2.10;2.00;;;22.50;59.90;;;;;;5043444;28;44066;-62
2022/06/18 04:25:25;;;;;;;2.17;2.00;;;22.50;60.00;;;;;;5076233;28;43428;-61
2022/06/18 04:27:57;;;;;;;2.17;2.08;;;22.40;59.90;;;;;;5042398;28;43475;-61
2022/06/18 04:30:30;;;;;;;2.15;1.95;;;22.50;60.00;;;;;;5042318;28;43494;-62
2022/06/18 04:33:06;;;;;;;2.45;2.25;;;22.40;60.00;;;;;;5026741;28;44670;-61
2022/06/18 04:35:38;;;;;;;2.40;2.20;;;22.40;60.00;;;;;;5039706;28;43833;-62
2022/06/18 04:38:09;;;;;;;2.17;2.08;;;22.40;60.00;;;;;;5042435;28;43439;-62
2022/06/18 04:40:53;;;;;;;2.10;2.00;;;22.40;60.00;;;;;;5029171;28;43372;-61
2022/06/18 04:43:35;;;;;;;2.30;2.00;;;22.40;60.00;;;;;;5041041;28;44980;-62
2022/06/18 04:46:02;;;;;;;2.38;2.17;;;22.40;60.00;;;;;;5042243;28;43439;-61
2022/06/18 04:48:30;;;;;;;2.80;2.25;;;22.40;60.30;;;;;;5045501;28;43420;-61
2022/06/18 04:50:58;;;;;;;2.13;2.00;;;22.40;60.30;;;;;;5026061;28;43493;-61
2022/06/18 04:53:27;;;;;;;2.13;1.92;;;22.40;60.20;;;;;;5042169;28;45349;-61
2022/06/18 04:56:00;;;;;;;2.35;2.15;;;22.40;60.20;;;;;;5042045;28;44065;-61
2022/06/18 04:58:28;;;;;;;2.30;2.10;;;22.30;60.10;;;;;;5042282;28;43573;-62
2022/06/18 05:00:59;;;;;;;2.47;2.28;;;22.40;60.10;;;;;;5042768;28;44005;-62
2022/06/18 05:03:50;;;;;;;2.30;2.00;;;22.40;60.10;;;;;;5042386;28;43938;-62
2022/06/18 05:06:29;;;;;;;2.55;2.30;;;22.40;60.10;;;;;;5041789;28;43990;-61
2022/06/18 05:09:19;;;;;;;2.38;2.17;;;22.30;60.10;;;;;;5042194;28;43323;-61
2022/06/18 05:11:58;;;;;;;2.55;2.20;;;22.30;60.10;;;;;;5042591;28;43553;-62
2022/06/18 05:14:59;;;;;;;2.65;2.13;;;22.30;60.20;;;;;;5026085;28;43982;-62
2022/06/18 05:17:30;;;;;;;2.53;2.33;;;22.30;60.30;;;;;;5041937;28;44028;-62
2022/06/18 05:19:58;;;;;;;2.25;2.10;;;22.30;60.30;;;;;;5041146;28;43410;-61
2022/06/18 05:22:27;;;;;;;2.63;2.35;;;22.30;60.20;;;;;;5040302;28;43523;-62
2022/06/18 05:25:01;;;;;;;2.10;2.00;;;22.30;60.20;;;;;;5041757;28;43807;-61
2022/06/18 05:27:34;;;;;;;3.08;2.10;;;22.40;60.40;;;;;;5041508;28;44103;-62
2022/06/18 05:30:17;;;;;;;2.28;2.08;;;22.40;60.20;;;;;;5042596;28;43480;-61
2022/06/18 05:32:46;;;;;;;2.13;2.00;;;22.40;60.20;;;;;;5041883;28;43460;-61
2022/06/18 05:35:16;;;;;;;2.50;2.30;;;22.40;60.30;;;;;;5026360;28;44041;-61
2022/06/18 05:37:46;;;;;;;2.40;2.20;;;22.40;60.20;;;;;;5042563;28;43994;-62
2022/06/18 05:40:14;;;;;;;2.45;1.88;;;22.40;60.20;;;;;;5042352;28;43509;-62
2022/06/18 05:42:42;;;;;;;2.03;1.85;;;22.40;60.20;;;;;;5041335;28;43613;-61
2022/06/18 05:45:10;;;;;;;2.40;2.20;;;22.40;60.20;;;;;;5057924;28;45574;-61
2022/06/18 05:47:39;;;;;;;2.30;2.10;;;22.40;60.20;;;;;;5042223;28;43918;-63
2022/06/18 05:50:11;;;;;;;3.03;2.00;;;22.40;60.10;;;;;;5048404;28;43470;-61
2022/06/18 05:52:39;;;;;;;2.72;2.20;;;22.40;60.20;;;;;;5075020;28;43447;-61
2022/06/18 05:55:30;;;;;;;3.27;2.30;;;22.40;60.20;;;;;;5034143;28;44034;-62
2022/06/18 05:58:10;;;;;;;2.20;2.00;;;22.40;60.20;;;;;;5041763;28;44119;-61
2022/06/18 06:00:44;;;;;;;2.47;2.28;;;22.40;60.10;;;;;;5032869;28;43469;-61
2022/06/18 06:03:11;;;;;;;2.33;2.10;;;22.40;60.20;;;;;;5042036;28;43436;-61
2022/06/18 06:05:39;;;;;;;2.10;2.00;;;22.40;60.30;;;;;;5025903;28;43805;-62
2022/06/18 06:08:12;;;;;;;2.88;2.03;;;22.40;60.20;;;;;;5040999;28;43699;-61
2022/06/18 06:13:29;;;;;;;2.42;2.22;;;22.40;60.30;;;;;;5035248;28;43610;-61
2022/06/18 06:15:57;;;;;;;2.20;2.00;;;22.40;60.50;;;;;;5024362;28;44975;-61
2022/06/18 06:18:28;;;;;;;2.10;2.00;;;22.40;60.30;;;;;;5047023;28;44013;-61
2022/06/18 06:20:57;;;;;;;2.47;2.28;;;22.40;60.30;;;;;;5041751;28;43500;-61
2022/06/18 06:23:25;;;;;;;2.45;2.10;;;22.40;60.40;;;;;;5042402;28;43509;-61
2022/06/18 06:25:53;;;;;;;2.47;2.10;;;22.40;60.60;;;;;;5041015;28;44718;-61
2022/06/18 06:28:24;;;;;;;2.35;2.15;;;22.40;60.50;;;;;;5042292;28;43986;-61
2022/06/18 06:30:53;;;;;;;2.20;2.10;;;22.40;60.50;;;;;;5041941;28;43445;-61
2022/06/18 06:33:21;;;;;;;2.17;2.00;;;22.40;60.40;;;;;;5042373;28;43740;-62
2022/06/18 06:35:50;;;;;;;1.98;1.88;;;22.40;61.00;;;;;;5039760;28;44367;-60
2022/06/18 06:38:18;;;;;;;2.25;1.95;;;22.40;60.40;;;;;;5038832;28;44121;-61
2022/06/18 06:40:46;;;;;;;3.30;2.38;;;22.40;60.30;;;;;;5040702;28;43470;-61
2022/06/18 06:43:15;;;;;;;2.47;2.28;;;22.40;60.30;;;;;;5032445;28;43510;-61
2022/06/18 06:45:43;;;;;;;2.40;2.20;;;22.40;60.30;;;;;;5038709;28;44934;-61
2022/06/18 06:48:11;;;;;;;2.65;2.45;;;22.40;60.30;;;;;;5039147;28;43898;-61
2022/06/18 06:50:40;;;;;;;2.42;2.20;;;22.40;60.40;;;;;;5039798;28;43419;-62
2022/06/18 06:53:08;;;;;;;2.38;2.20;;;22.40;60.30;;;;;;5039891;28;43520;-61
2022/06/18 06:58:25;;;;;;;2.40;2.08;;;22.40;60.30;;;;;;5039619;28;43702;-61
2022/06/18 07:00:57;;;;;;;2.88;2.30;;;22.40;60.30;;;;;;5039635;28;43518;-61
2022/06/18 07:03:29;;;;;;;2.13;1.92;;;22.40;60.30;;;;;;5071158;28;43835;-61
2022/06/18 07:05:59;;;;;;;2.10;1.90;;;22.40;60.40;;;;;;5040000;28;43755;-61
2022/06/18 07:08:27;;;;;;;2.00;1.90;;;22.40;60.30;;;;;;5073511;28;43993;-61
2022/06/18 07:10:55;;;;;;;2.40;2.20;;;22.40;60.30;;;;;;5042170;28;43583;-61
2022/06/18 07:13:29;;;;;;;2.35;2.15;;;22.40;60.40;;;;;;5043518;28;43589;-61
2022/06/18 07:15:57;;;;;;;2.20;2.10;;;22.40;60.30;;;;;;5042590;28;44988;-60
2022/06/18 07:18:31;;;;;;;2.20;2.00;;;22.50;60.40;;;;;;5042437;28;43962;-61
2022/06/18 07:21:04;;;;;;;3.20;2.33;;;22.50;60.30;;;;;;5042255;28;43482;-61
2022/06/18 07:23:32;;;;;;;3.22;2.00;;;22.50;60.70;;;;;;5042030;28;43674;-61
2022/06/18 07:26:00;;;;;;;1.80;1.70;;;22.50;60.50;;;;;;5042948;28;44048;-61
2022/06/18 07:28:28;;;;;;;1.98;1.85;;;22.50;60.60;;;;;;5041893;28;43490;-60
2022/06/18 07:30:55;;;;;;;2.83;2.00;;;22.50;60.50;;;;;;5041961;28;43499;-61
2022/06/18 07:33:25;;;;;;;1.92;1.83;;;22.50;60.60;;;;;;5042143;28;43486;-61
2022/06/18 07:35:54;;;;;;;2.15;1.95;;;22.50;60.40;;;;;;5042199;28;43620;-61
2022/06/18 07:38:21;;;;;;;2.92;2.05;;;22.50;60.50;;;;;;5041149;28;43452;-60
2022/06/18 07:40:52;;;;;;;1.83;1.73;;;22.50;60.50;;;;;;5041616;28;43578;-60
2022/06/18 07:43:28;;;;;;;2.00;1.90;;;22.50;60.40;;;;;;5042287;28;43493;-60
2022/06/18 07:45:55;;;;;;;1.90;1.80;;;22.50;60.30;;;;;;5041887;28;43984;-60
2022/06/18 07:48:23;;;;;;;2.08;1.98;;;22.50;60.30;;;;;;5041938;28;43622;-61
2022/06/18 07:50:51;;;;;;;2.00;1.83;;;22.50;60.30;;;;;;5041111;28;43468;-61
2022/06/18 07:53:22;;;;;;;2.00;1.90;;;22.50;60.40;;;;;;5041936;28;43497;-60
2022/06/18 07:55:51;;;;;;;2.45;2.17;;;22.50;60.50;;;;;;5074973;28;44180;-62
2022/06/18 07:58:19;;;;;;;2.42;2.00;;;22.50;60.60;;;;;;5040999;28;43474;-62
2022/06/18 08:00:47;;;;;;;1.80;1.70;;;22.50;60.70;;;;;;5042331;28;43610;-62
2022/06/18 08:03:16;;;;;;;2.55;1.92;;;22.50;60.50;;;;;;5044008;28;43486;-62
2022/06/18 08:05:47;;;;;;;1.92;1.80;;;22.50;60.50;;;;;;5044205;28;43785;-62
2022/06/18 08:08:15;;;;;;;2.40;1.80;;;22.50;60.50;;;;;;5043153;28;43637;-62
2022/06/18 08:11:02;;;;;;;2.20;1.77;;;22.50;60.50;;;;;;5044165;28;43542;-63
2022/06/18 08:13:30;;;;;;;8.20;2.00;;;22.50;60.60;;;;;;5044277;28;43571;-63
2022/06/18 08:15:57;;;;;;;7.32;2.13;;;22.50;61.80;;;;;;5041776;28;43946;-63
2022/06/18 08:18:25;;;;;;;2.10;1.90;;;22.60;61.90;;;;;;5033249;28;43676;-63
2022/06/18 08:20:59;;;;;;;3.65;2.13;;;22.60;62.70;;;;;;5043810;28;43454;-63
2022/06/18 08:23:27;;;;;;;4.15;1.80;;;22.60;62.00;;;;;;5042887;28;43396;-62
2022/06/18 08:25:54;;;;;;;2.90;1.90;;;22.60;62.00;;;;;;5035588;28;43807;-62
2022/06/18 08:28:22;;;;;;;2.53;1.60;;;22.60;62.00;;;;;;5040766;28;43508;-63
2022/06/18 08:30:50;;;;;;;3.58;1.85;;;22.60;62.70;;;;;;5040437;28;43564;-62
2022/06/18 08:33:18;;;;;;;3.40;2.00;;;22.60;62.60;;;;;;5040053;28;43518;-63
2022/06/18 08:35:45;;;;;;;2.20;1.70;;;22.70;63.50;;;;;;5041713;28;43881;-63
2022/06/18 08:38:14;;;;;;;2.40;1.73;;;22.70;63.00;;;;;;5042686;28;43479;-62
2022/06/18 08:41:19;;;;;;;1.67;1.50;;;22.70;63.30;;;;;;5041709;28;44045;-63
2022/06/18 08:44:05;;;;;;;3.25;1.50;;;22.70;63.00;;;;;;5038516;28;43465;-63
2022/06/18 08:46:51;;;;;;;3.70;1.80;;;22.70;62.80;;;;;;5040181;28;45395;-63
2022/06/18 08:49:37;;;;;;;2.45;1.55;;;22.70;63.70;;;;;;5040819;28;43560;-64
2022/06/18 08:52:29;;;;;;;1.75;1.65;;;22.70;62.90;;;;;;5039754;28;43579;-63
2022/06/18 08:55:21;;;;;;;3.33;1.75;;;22.70;64.20;;;;;;5040217;28;43542;-64
2022/06/18 08:58:00;;;;;;;2.75;1.83;;;22.70;64.00;;;;;;5038146;28;44231;-64
2022/06/18 09:00:31;;;;;;;3.97;2.03;;;22.70;63.60;;;;;;5040388;28;44042;-63
2022/06/18 09:03:03;;;;;;;2.17;1.50;;;22.80;64.60;;;;;;5040436;28;43637;-63
2022/06/18 09:05:49;;;;;;;3.47;1.67;;;22.80;63.70;;;;;;5041679;28;43593;-64
2022/06/18 09:08:23;;;;;;;3.90;2.00;;;22.80;64.30;;;;;;5041690;28;43889;-63
2022/06/18 09:11:09;;;;;;;5.43;1.80;;;22.80;63.90;;;;;;5041447;28;43526;-64
2022/06/18 09:13:40;;;;;;;2.58;1.50;;;22.80;64.40;;;;;;5040211;28;43590;-63
2022/06/18 09:16:11;;;;;;;2.40;1.50;;;22.80;64.00;;;;;;5040877;28;43498;-63
2022/06/18 09:18:45;;;;;;;2.60;1.65;;;22.80;64.20;;;;;;5040788;28;44438;-63
2022/06/18 09:21:22;;;;;;;2.88;1.67;;;22.80;63.80;;;;;;5040369;28;44017;-63
2022/06/18 09:23:55;;;;;;;2.13;1.50;;;22.80;63.80;;;;;;5041235;28;43478;-64
2022/06/18 09:26:29;;;;;;;2.90;1.55;;;22.80;63.90;;;;;;5040239;28;43442;-64
2022/06/18 09:29:16;;;;;;;3.80;1.63;;;22.80;63.90;;;;;;5038262;28;44396;-65
2022/06/18 09:31:50;;;;;;;1.33;1.20;;;22.90;63.80;;;;;;5039550;28;43461;-64
2022/06/18 09:34:37;;;;;;;2.80;1.52;;;22.90;64.00;;;;;;5040401;28;43492;-64
2022/06/18 09:37:44;;;;;;;2.88;1.65;;;22.80;63.80;;;;;;5040557;28;43414;-64
2022/06/18 09:40:19;;;;;;;3.78;1.98;;;22.90;63.80;;;;;;4978780;28;44378;-64
2022/06/18 09:42:57;;;;;;;3.72;1.63;;;22.90;64.20;;;;;;5031013;28;43570;-64
2022/06/18 09:45:32;;;;;;;2.78;1.40;;;22.90;63.30;;;;;;5038873;28;43530;-64
2022/06/18 09:48:02;;;;;;;3.65;1.35;;;22.90;64.20;;;;;;5039615;28;43528;-64
2022/06/18 09:50:47;;;;;;;2.53;1.50;;;22.90;64.20;;;;;;5041551;28;44055;-64
2022/06/18 09:53:28;;;;;;;2.42;1.30;;;23.00;63.50;;;;;;5042564;28;43695;-64
2022/06/18 09:55:57;;;;;;;3.00;1.40;;;23.00;63.70;;;;;;5042758;28;43466;-64
2022/06/18 09:58:38;;;;;;;1.98;1.20;;;23.00;63.40;;;;;;5041875;28;43622;-64
2022/06/18 10:01:09;;;;;;;2.42;1.38;;;23.00;63.30;;;;;;5042060;28;44952;-64
2022/06/18 10:09:42;;;;;;;3.00;1.33;;;23.00;62.50;;;;;;5042126;28;44042;-65
2022/06/18 10:12:12;;;;;;;3.55;1.40;;;23.00;63.00;;;;;;5041109;28;44681;-64
2022/06/18 10:14:42;;;;;;;2.65;1.20;;;23.00;62.60;;;;;;5042390;28;43997;-64
2022/06/18 10:17:30;;;;;;;1.73;1.20;;;23.10;62.40;;;;;;5042655;28;43408;-64
2022/06/18 10:20:19;;;;;;;2.97;1.40;;;23.10;62.40;;;;;;5039867;28;43737;-64
2022/06/18 10:23:18;;;;;;;2.00;1.10;;;23.10;62.40;;;;;;5041942;28;43825;-64
2022/06/18 10:25:57;;;;;;;2.15;1.30;;;23.10;62.20;;;;;;5041222;28;43681;-65
2022/06/18 10:28:50;;;;;;;1.48;1.10;;;23.10;62.60;;;;;;5034390;28;43535;-65
2022/06/18 10:31:37;;;;;;;2.85;1.58;;;23.20;62.70;;;;;;5035423;28;43535;-64
2022/06/18 10:34:11;;;;;;;1.77;1.08;;;23.20;62.40;;;;;;5042825;28;44031;-64
2022/06/18 10:36:50;;;;;;;2.22;1.25;;;23.20;62.20;;;;;;5042200;28;43530;-64
2022/06/18 10:39:20;;;;;;;1.60;1.30;;;23.20;62.10;;;;;;5037993;28;43403;-64
2022/06/18 10:42:15;;;;;;;3.10;1.42;;;23.20;62.50;;;;;;5042863;28;43509;-64
2022/06/18 10:45:02;;;;;;;2.08;1.30;;;23.20;62.10;;;;;;5039715;28;44260;-64
2022/06/18 10:47:37;;;;;;;2.50;1.20;;;23.20;62.20;;;;;;5042468;28;43564;-64
2022/06/18 10:50:12;;;;;;;2.55;1.10;;;23.20;62.10;;;;;;5039867;28;43852;-64
2022/06/18 10:52:40;;;;;;;2.60;1.13;;;23.30;61.30;;;;;;5042820;28;43512;-65
2022/06/18 10:55:21;;;;;;;2.83;1.63;;;23.30;60.90;;;;;;5043793;28;44963;-64
2022/06/18 10:57:50;;;;;;;2.53;1.40;;;23.30;61.50;;;;;;5044245;28;44900;-64
2022/06/18 11:00:28;;;;;;;2.15;1.23;;;23.30;61.30;;;;;;5041427;28;43500;-64
2022/06/18 11:02:59;;;;;;;1.40;1.13;;;23.40;61.40;;;;;;5044381;28;44108;-64
2022/06/18 11:05:36;;;;;;;2.33;1.20;;;23.40;60.50;;;;;;5044094;28;44702;-64
2022/06/18 11:08:18;;;;;;;1.85;0.95;;;23.40;61.00;;;;;;5045051;28;43509;-64
2022/06/18 11:11:02;;;;;;;1.75;1.10;;;23.40;61.00;;;;;;5044215;28;43542;-65
2022/06/18 11:13:35;;;;;;;2.25;1.00;;;23.40;61.00;;;;;;5039872;28;44096;-64
2022/06/18 11:16:23;;;;;;;2.70;1.40;;;23.40;61.00;;;;;;5043807;28;43791;-64
2022/06/18 11:18:53;;;;;;;3.55;1.20;;;23.50;61.10;;;;;;5042542;28;43458;-64
2022/06/18 11:21:35;;;;;;;1.92;1.30;;;23.50;60.90;;;;;;5043739;28;43426;-64
2022/06/18 11:24:34;;;;;;;3.45;1.27;;;23.50;60.80;;;;;;5041416;28;43499;-64
2022/06/18 11:27:06;;;;;;;2.13;1.05;;;23.50;60.80;;;;;;5042083;28;44409;-64
2022/06/18 11:29:37;;;;;;;2.60;1.20;;;23.50;60.80;;;;;;5044239;28;43976;-64
2022/06/18 11:32:15;;;;;;;2.47;1.27;;;23.60;60.50;;;;;;5074898;28;43489;-64
2022/06/18 11:35:19;;;;;;;3.05;1.20;;;23.60;60.70;;;;;;5042788;28;43499;-64
2022/06/18 11:38:32;;;;;;;3.22;1.33;;;23.60;60.60;;;;;;5023002;28;43994;-64
2022/06/18 11:41:40;;;;;;;2.00;1.20;;;23.60;60.60;;;;;;5039383;28;43734;-64
2022/06/18 11:44:25;;;;;;;1.85;1.30;;;23.70;60.40;;;;;;5041456;28;43989;-64
2022/06/18 11:47:06;;;;;;;2.17;1.30;;;23.70;60.60;;;;;;5040237;28;43527;-64
2022/06/18 11:49:40;;;;;;;3.80;1.30;;;23.70;60.40;;;;;;5040654;28;44051;-64
2022/06/18 11:52:38;;;;;;;2.38;1.08;;;23.80;60.40;;;;;;5040590;28;43504;-64
2022/06/18 11:55:31;;;;;;;3.10;1.10;;;23.80;60.30;;;;;;5040895;28;43455;-65
2022/06/18 11:58:18;;;;;;;2.80;1.10;;;23.80;60.10;;;;;;5031205;28;43491;-64
2022/06/18 12:01:03;;;;;;;1.95;1.40;;;23.80;60.30;;;;;;5042002;28;44065;-65
2022/06/18 12:03:49;;;;;;;3.05;1.20;;;23.90;60.70;;;;;;5040298;28;43859;-64
2022/06/18 12:06:40;;;;;;;3.10;1.20;;;23.90;60.00;;;;;;5041836;28;43442;-64
2022/06/18 12:09:27;;;;;;;2.50;1.50;;;23.90;60.00;;;;;;5042696;28;43612;-64
2022/06/18 12:12:03;;;;;;;2.63;1.35;;;23.90;60.00;;;;;;5040316;28;43823;-64
2022/06/18 12:14:48;;;;;;;4.00;1.75;;;24.00;60.00;;;;;;5041667;28;43477;-63
2022/06/18 12:17:41;;;;;;;4.10;1.60;;;24.00;59.80;;;;;;5041615;28;43541;-64
2022/06/18 12:20:29;;;;;;;2.35;1.40;;;24.00;59.50;;;;;;5041160;28;43494;-63
2022/06/18 12:23:12;;;;;;;3.88;1.48;;;24.00;59.70;;;;;;5043245;28;43983;-65
2022/06/18 12:26:06;;;;;;;4.22;1.45;;;24.00;60.30;;;;;;5036646;28;43556;-66
2022/06/18 12:28:50;;;;;;;5.72;2.05;;;24.00;59.70;;;;;;5043153;28;43539;-63
2022/06/18 12:32:02;;;;;;;3.33;1.60;;;24.00;59.60;;;;;;5040990;28;43522;-64
2022/06/18 12:34:51;;;;;;;3.63;1.58;;;24.00;59.00;;;;;;5021985;28;44060;-63
2022/06/18 12:37:30;;;;;;;9.90;1.98;;;24.00;58.90;;;;;;5041642;28;43575;-64
2022/06/18 12:40:13;;;;;;;3.58;1.42;;;24.10;59.10;;;;;;5042268;28;43456;-64
2022/06/18 12:43:27;;;;;;;4.78;1.63;;;24.10;58.10;;;;;;5038952;28;43536;-65
2022/06/18 12:46:03;;;;;;;3.22;1.92;;;24.10;58.70;;;;;;5023848;28;43832;-61
2022/06/18 12:48:33;;;;;;;8.23;2.20;;;24.10;59.10;;;;;;5038287;28;43539;-62
2022/06/18 12:51:23;;;;;;;3.75;1.65;;;24.10;58.70;;;;;;5040770;28;43891;-62
2022/06/18 12:54:19;;;;;;;5.45;1.65;;;24.10;58.20;;;;;;5040970;28;43567;-62
2022/06/18 12:57:06;;;;;;;5.63;2.20;;;24.10;57.50;;;;;;5040412;28;43780;-63
2022/06/18 12:59:51;;;;;;;4.13;1.80;;;24.10;58.00;;;;;;5041181;28;44278;-63
2022/06/18 13:02:48;;;;;;;5.10;1.77;;;24.10;57.90;;;;;;5041496;28;43520;-63
2022/06/18 13:05:41;;;;;;;3.50;1.58;;;24.00;58.00;;;;;;5038383;28;43499;-62
2022/06/18 13:08:11;;;;;;;5.18;2.03;;;24.00;58.10;;;;;;5040830;28;43972;-63
2022/06/18 13:11:02;;;;;;;9.07;2.25;;;24.10;58.00;;;;;;5039628;28;43584;-63
2022/06/18 13:13:57;;;;;;;6.28;2.28;;;24.10;57.90;;;;;;5040685;28;43681;-63
2022/06/18 13:16:36;;;;;;;6.25;2.30;;;24.10;58.30;;;;;;5041039;28;43498;-63
2022/06/18 13:19:11;;;;;;;4.53;1.90;;;24.10;58.40;;;;;;5041002;28;43904;-63
2022/06/18 13:21:40;;;;;;;5.38;1.80;;;24.20;58.00;;;;;;5040692;28;43493;-63
2022/06/18 13:30:04;;;;;;;4.32;1.80;;;24.30;57.60;;;;;;5041519;28;44062;-63
2022/06/18 13:32:58;;;;;;;5.50;1.80;;;24.30;57.70;;;;;;5039365;28;43468;-63
2022/06/18 13:35:48;;;;;;;5.30;1.77;;;24.30;57.90;;;;;;5041159;28;43396;-65
2022/06/18 13:38:34;;;;;;;8.07;2.37;;;24.30;58.00;;;;;;5044653;28;43585;-63
2022/06/18 13:41:13;;;;;;;5.43;2.05;;;24.30;58.20;;;;;;5038876;28;43791;-64
2022/06/18 13:44:01;;;;;;;6.68;2.10;;;24.30;57.30;;;;;;5039994;28;44022;-64
2022/06/18 13:46:39;;;;;;;7.78;2.03;;;24.30;57.80;;;;;;5039438;28;43458;-64
2022/06/18 13:49:24;;;;;;;5.93;2.15;;;24.20;57.60;;;;;;5039887;28;44028;-63
2022/06/18 13:52:01;;;;;;;6.00;1.80;;;24.10;57.70;;;;;;5039544;28;44688;-63
2022/06/18 13:54:49;;;;;;;6.40;2.28;;;24.10;57.60;;;;;;5041704;28;43424;-63
2022/06/18 13:57:19;;;;;;;6.70;1.90;;;24.10;57.40;;;;;;5040393;28;43506;-63